Time;durP1;ratioP1;P1;durP2;ratioP2;P2;SDS_P1;SDS_P2;PMS_P1;PMS_P2;Temp;Humidity;BMP_temperature;BMP_pressure;BME280_temperature;BME280_humidity;BME280_pressure;Samples;Min_cycle;Max_cycle;Signal;HPM_P1;HPM_P2
2022/04/20 02:02:44;;;;;;;17.80;8.73;;;;;;;-145.18;100.00;46719.00;5288351;23;20386;-71
2022/04/20 02:05:11;;;;;;;18.93;9.37;;;;;;;-145.18;100.00;46734.63;5040353;28;20302;-71
2022/04/20 02:07:37;;;;;;;15.67;8.43;;;;;;;-145.18;100.00;46732.66;5031052;28;20056;-71
2022/04/20 02:10:04;;;;;;;15.07;9.90;;;;;;;-145.18;100.00;46730.72;5030708;28;20278;-71
2022/04/20 02:12:29;;;;;;;14.43;8.73;;;;;;;-145.18;100.00;46715.09;5030831;28;20047;-71
2022/04/20 02:14:55;;;;;;;14.30;7.93;;;;;;;-145.18;100.00;46722.91;5013349;28;20279;-72
2022/04/20 02:17:21;;;;;;;15.17;9.10;;;;;;;-145.18;100.00;46724.84;5030771;28;20080;-71
2022/04/20 02:19:46;;;;;;;18.43;9.43;;;;;;;-145.18;100.00;46736.56;5031160;28;20046;-71
2022/04/20 02:22:12;;;;;;;19.77;9.40;;;;;;;-145.18;100.00;46720.94;5030655;28;20041;-71
2022/04/20 02:24:37;;;;;;;17.13;7.83;;;;;;;-145.18;100.00;46732.66;5031056;28;20033;-72
2022/04/20 02:27:03;;;;;;;14.60;8.43;;;;;;;-145.18;100.00;46748.28;5030744;28;20030;-71
2022/04/20 02:29:28;;;;;;;17.43;8.33;;;;;;;-145.18;100.00;46722.91;5030728;28;20114;-71
2022/04/20 02:31:54;;;;;;;16.33;8.53;;;;;;;-145.18;100.00;46748.28;5030628;28;20041;-71
2022/04/20 02:34:19;;;;;;;15.97;9.20;;;;;;;-145.18;100.00;46719.00;5030332;28;20539;-71
2022/04/20 02:36:45;;;;;;;17.20;9.17;;;;;;;-145.18;100.00;46740.47;5013158;28;20397;-71
2022/04/20 02:39:11;;;;;;;17.80;8.67;;;;;;;-145.18;100.00;46734.63;5030125;28;20397;-71
2022/04/20 02:41:37;;;;;;;14.43;8.67;;;;;;;-145.18;100.00;46742.44;5030874;28;20033;-71
2022/04/20 02:44:04;;;;;;;17.80;9.30;;;;;;;-145.18;100.00;46722.91;5030131;28;20057;-71
2022/04/20 02:46:30;;;;;;;16.20;9.00;;;;;;;-145.18;100.00;46709.22;5030683;28;20269;-71
2022/04/20 02:48:55;;;;;;;16.97;9.03;;;;;;;-145.18;100.00;46711.19;5030104;28;20631;-72
2022/04/20 02:51:20;;;;;;;22.93;10.13;;;;;;;-145.18;100.00;46709.22;5030761;28;20034;-71
2022/04/20 02:53:46;;;;;;;13.70;8.27;;;;;;;-145.18;100.00;46719.00;5030271;28;20092;-71
2022/04/20 02:56:12;;;;;;;14.00;8.30;;;;;;;-145.18;100.00;46730.72;5030445;28;20591;-71
2022/04/20 02:58:37;;;;;;;14.37;8.80;;;;;;;-145.18;100.00;46711.19;5029577;28;20036;-71
2022/04/20 03:01:03;;;;;;;14.33;7.93;;;;;;;-145.18;100.00;46722.91;5030591;28;20029;-71
2022/04/20 03:03:28;;;;;;;20.67;9.83;;;;;;;-145.18;100.00;46722.91;5030014;28;20064;-71
2022/04/20 03:05:54;;;;;;;13.17;8.23;;;;;;;-145.18;100.00;46722.91;5030391;28;20163;-72
2022/04/20 03:08:21;;;;;;;18.90;8.80;;;;;;;-145.18;100.00;46703.38;5012408;28;20032;-72
2022/04/20 03:10:46;;;;;;;17.07;7.97;;;;;;;-145.18;100.00;46717.03;5030410;28;20259;-71
2022/04/20 03:13:12;;;;;;;14.27;8.77;;;;;;;-145.18;100.00;46719.00;5012142;28;20277;-71
2022/04/20 03:15:37;;;;;;;16.70;8.33;;;;;;;-145.18;100.00;46713.13;5030052;28;20029;-71
2022/04/20 03:18:03;;;;;;;16.37;8.37;;;;;;;-145.18;100.00;46709.22;5029718;28;20034;-71
2022/04/20 03:20:28;;;;;;;18.33;8.57;;;;;;;-145.18;100.00;46715.09;5030346;28;20061;-71
2022/04/20 03:22:54;;;;;;;18.37;9.47;;;;;;;-145.18;100.00;46717.03;5029501;28;20405;-71
2022/04/20 03:25:19;;;;;;;13.77;7.43;;;;;;;-145.18;100.00;46732.66;5030316;28;20033;-71
2022/04/20 03:27:44;;;;;;;14.70;7.73;;;;;;;-145.18;100.00;46722.91;5029870;28;20032;-70
2022/04/20 03:30:12;;;;;;;17.27;8.60;;;;;;;-145.18;100.00;46734.63;5029811;28;20033;-71
2022/04/20 03:32:38;;;;;;;18.30;7.70;;;;;;;-145.18;100.00;46720.94;5029812;28;20026;-71
2022/04/20 03:35:04;;;;;;;14.27;8.00;;;;;;;-145.18;100.00;46732.66;5029901;28;20275;-70
2022/04/20 03:37:31;;;;;;;11.97;7.50;;;;;;;-145.18;100.00;46715.09;5029568;28;20524;-70
2022/04/20 03:39:57;;;;;;;12.23;7.73;;;;;;;-145.18;100.00;46728.75;5029744;28;20041;-71
2022/04/20 03:42:22;;;;;;;16.43;7.70;;;;;;;-145.18;100.00;46730.72;5029905;28;20279;-71
2022/04/20 03:44:48;;;;;;;14.03;7.90;;;;;;;-145.18;100.00;46744.38;5030000;28;20258;-71
2022/04/20 03:47:13;;;;;;;16.00;7.80;;;;;;;-145.18;100.00;46765.88;5029799;28;20049;-71
2022/04/20 03:49:39;;;;;;;11.23;7.37;;;;;;;-145.18;100.00;46756.09;5045267;28;20025;-73
2022/04/20 03:52:06;;;;;;;13.07;7.30;;;;;;;-145.18;100.00;46746.34;5049026;28;20064;-72
2022/04/20 03:54:31;;;;;;;14.33;7.73;;;;;;;-145.18;100.00;46748.28;5049039;28;20044;-72
2022/04/20 03:57:10;;;;;;;14.30;6.60;;;;;;;-145.18;100.00;46754.16;5031167;28;20270;-72
2022/04/20 03:59:37;;;;;;;14.90;8.33;;;;;;;-145.18;100.00;46756.09;5049123;28;20119;-72
2022/04/20 04:02:04;;;;;;;13.80;7.87;;;;;;;-145.18;100.00;46758.06;5028400;28;20345;-72
2022/04/20 04:04:30;;;;;;;14.40;7.53;;;;;;;-145.18;100.00;46801.03;5046059;28;20262;-72
2022/04/20 04:06:55;;;;;;;13.77;7.60;;;;;;;-145.18;100.00;46765.88;5049326;28;20785;-72
2022/04/20 04:09:21;;;;;;;14.33;7.37;;;;;;;-145.18;100.00;46769.78;5048725;28;20063;-72
2022/04/20 04:11:46;;;;;;;13.50;7.10;;;;;;;-145.18;100.00;46760.00;5048706;28;20032;-72
2022/04/20 04:14:11;;;;;;;12.63;6.13;;;;;;;-145.18;100.00;46797.13;5048264;28;20033;-72
2022/04/20 04:16:37;;;;;;;11.33;6.10;;;;;;;-145.18;100.00;46781.50;5049676;28;20040;-72
2022/04/20 04:19:04;;;;;;;15.33;7.30;;;;;;;-145.18;100.00;46797.13;5031026;28;20033;-72
2022/04/20 04:21:31;;;;;;;12.20;6.90;;;;;;;-145.18;100.00;46793.22;5049383;28;20309;-72
2022/04/20 04:23:56;;;;;;;16.17;6.90;;;;;;;-145.18;100.00;46814.72;5048973;28;20799;-72
2022/04/20 04:26:22;;;;;;;13.47;6.60;;;;;;;-145.18;100.00;46795.19;5049444;28;20282;-72
2022/04/20 04:28:47;;;;;;;15.80;6.93;;;;;;;-145.18;100.00;46769.78;5034929;28;20032;-72
2022/04/20 04:31:12;;;;;;;11.23;6.37;;;;;;;-145.18;100.00;46826.44;5052730;28;20118;-72
2022/04/20 04:33:38;;;;;;;10.50;6.17;;;;;;;-145.18;100.00;46781.50;5052103;28;20025;-72
2022/04/20 04:36:04;;;;;;;11.17;6.07;;;;;;;-145.18;100.00;46834.25;5053153;28;20025;-72
2022/04/20 04:38:29;;;;;;;11.30;6.67;;;;;;;-145.18;100.00;46842.06;5052636;28;20738;-72
2022/04/20 04:40:55;;;;;;;13.37;6.97;;;;;;;-145.18;100.00;46812.75;5035327;28;20037;-72
2022/04/20 04:43:21;;;;;;;12.37;7.00;;;;;;;-145.18;100.00;46820.56;5052617;28;20021;-72
2022/04/20 04:48:36;;;;;;;12.73;6.27;;;;;;;-145.18;100.00;46804.94;5052782;28;20319;-72
2022/04/20 04:51:06;;;;;;;10.93;6.07;;;;;;;-145.18;100.00;46840.09;5052888;28;20308;-72
2022/04/20 04:53:32;;;;;;;10.57;5.80;;;;;;;-145.18;100.00;46820.56;5052496;28;20838;-72
2022/04/20 04:55:57;;;;;;;12.37;6.20;;;;;;;-145.18;100.00;46838.16;5052391;28;20341;-72
2022/04/20 04:58:22;;;;;;;10.47;6.03;;;;;;;-145.18;100.00;46808.84;5052435;28;20036;-72
2022/04/20 05:00:48;;;;;;;9.63;6.27;;;;;;;-145.18;100.00;46867.44;5052241;28;20392;-72
2022/04/20 05:03:17;;;;;;;11.63;6.33;;;;;;;-145.18;100.00;46849.88;5051428;28;20045;-72
2022/04/20 05:05:45;;;;;;;13.13;6.27;;;;;;;-145.18;100.00;46900.66;5052151;28;20025;-73
2022/04/20 05:08:11;;;;;;;10.00;6.17;;;;;;;-145.18;100.00;46855.72;5051318;28;20265;-72
2022/04/20 05:10:37;;;;;;;10.87;6.10;;;;;;;-145.18;100.00;46941.69;5051586;28;20615;-72
2022/04/20 05:13:03;;;;;;;9.93;6.07;;;;;;;-145.18;100.00;47082.34;5051525;28;20048;-72
2022/04/20 05:15:29;;;;;;;10.07;5.60;;;;;;;-145.18;100.00;47072.56;5052556;28;20486;-73
2022/04/20 05:17:54;;;;;;;11.50;5.47;;;;;;;-145.18;100.00;47049.13;5052481;28;20407;-72
2022/04/20 05:20:20;;;;;;;12.83;5.90;;;;;;;-145.18;100.00;47191.75;5052829;28;20397;-73
2022/04/20 05:22:49;;;;;;;9.57;5.40;;;;;;;-145.18;100.00;47324.59;5034025;28;20409;-72
2022/04/20 05:25:15;;;;;;;10.97;6.40;;;;;;;-145.18;100.00;47402.72;5052177;28;20063;-73
2022/04/20 05:27:41;;;;;;;9.90;5.77;;;;;;;-145.18;100.00;47410.56;5051507;28;20289;-72
2022/04/20 05:30:09;;;;;;;15.33;6.07;;;;;;;-145.18;100.00;47424.22;5043606;28;20274;-72
2022/04/20 05:32:34;;;;;;;10.47;5.80;;;;;;;-145.18;100.00;47469.16;5034079;28;20161;-73
2022/04/20 05:35:00;;;;;;;9.80;5.23;;;;;;;-145.18;100.00;47480.88;5052004;28;20296;-73
2022/04/20 05:42:54;;;;;;;10.00;5.27;;;;;;;-145.18;100.00;47512.16;5051756;28;20681;-73
2022/04/20 05:45:19;;;;;;;7.60;4.80;;;;;;;-145.18;100.00;47490.66;5051993;28;20267;-72
2022/04/20 05:47:45;;;;;;;16.97;5.10;;;;;;;-145.18;100.00;47502.38;5051449;28;20448;-73
2022/04/20 05:50:11;;;;;;;8.43;5.10;;;;;;;-145.18;100.00;47514.09;5033911;28;20408;-73
2022/04/20 05:52:37;;;;;;;11.67;5.03;;;;;;;-145.18;100.00;47484.78;5051581;28;20270;-72
2022/04/20 05:55:04;;;;;;;10.83;5.20;;;;;;;-145.18;100.00;47453.53;5033391;28;20025;-73
2022/04/20 05:57:29;;;;;;;10.10;5.50;;;;;;;-145.18;100.00;47478.94;5051577;28;20056;-72
2022/04/20 05:59:55;;;;;;;10.37;5.97;;;;;;;-145.18;100.00;47494.56;5051313;28;20304;-73
2022/04/20 06:02:20;;;;;;;12.10;5.10;;;;;;;-145.18;100.00;47476.97;5051088;28;20412;-73
2022/04/20 06:04:46;;;;;;;10.50;5.70;;;;;;;-145.18;100.00;47453.53;5050960;28;20052;-73
2022/04/20 06:07:12;;;;;;;8.20;5.40;;;;;;;-145.18;100.00;47434.00;5050522;28;20064;-73
2022/04/20 06:09:37;;;;;;;9.93;5.00;;;;;;;-145.18;100.00;47439.84;5050791;28;20036;-73
2022/04/20 06:12:03;;;;;;;7.77;5.23;;;;;;;-145.18;100.00;47447.66;5050161;28;20274;-73
2022/04/20 06:14:28;;;;;;;9.53;5.20;;;;;;;-145.18;100.00;47434.00;5046918;28;20404;-72
2022/04/20 06:16:53;;;;;;;9.50;5.20;;;;;;;-145.18;100.00;47424.22;5050454;28;20033;-73
2022/04/20 06:19:19;;;;;;;8.67;5.07;;;;;;;-145.18;100.00;47387.09;5048647;28;20119;-73
2022/04/20 06:21:44;;;;;;;9.90;4.77;;;;;;;-145.18;100.00;47410.56;5051089;28;20033;-73
2022/04/20 06:24:10;;;;;;;12.00;4.30;;;;;;;-145.18;100.00;47392.97;5050324;28;20172;-73
2022/04/20 06:26:35;;;;;;;7.93;4.47;;;;;;;-145.18;100.00;47392.97;5032633;28;20092;-73
2022/04/20 06:29:00;;;;;;;11.40;4.97;;;;;;;-145.18;100.00;47381.25;5048894;28;20039;-73
2022/04/20 06:31:26;;;;;;;7.03;4.93;;;;;;;-145.18;100.00;47373.44;5050731;28;20037;-73
2022/04/20 06:33:58;;;;;;;13.27;4.60;;;;;;;-145.18;100.00;47383.19;5050161;28;20028;-73
2022/04/20 06:36:24;;;;;;;9.60;4.63;;;;;;;-145.18;100.00;47379.28;5037646;28;20038;-73
2022/04/20 06:38:50;;;;;;;10.87;5.40;;;;;;;-145.18;100.00;47387.09;5045399;28;20298;-73
2022/04/20 06:41:15;;;;;;;8.57;4.47;;;;;;;-145.18;100.00;47369.53;5033273;28;20360;-73
2022/04/20 06:43:40;;;;;;;10.27;5.57;;;;;;;-145.18;100.00;47373.44;5030707;28;20040;-73
2022/04/20 06:46:06;;;;;;;7.70;5.03;;;;;;;-145.18;100.00;47375.38;5030762;28;20481;-73
2022/04/20 06:48:31;;;;;;;12.07;4.87;;;;;;;-145.18;100.00;47344.13;5030265;28;20065;-73
2022/04/20 06:50:57;;;;;;;7.63;4.90;;;;;;;-145.18;100.00;47349.97;5014082;28;20040;-73
2022/04/20 06:58:50;;;;;;;6.63;4.33;;;;;;;-145.18;100.00;47324.59;5050146;28;20812;-73
2022/04/20 07:01:16;;;;;;;6.50;4.60;;;;;;;-145.18;100.00;47322.63;5050430;28;20282;-73
2022/04/20 07:03:42;;;;;;;10.37;5.13;;;;;;;-145.18;100.00;47316.78;5049444;28;20493;-73
2022/04/20 07:06:07;;;;;;;7.67;4.57;;;;;;;-145.18;100.00;47332.41;5049405;28;20095;-73
2022/04/20 07:08:34;;;;;;;13.27;4.17;;;;;;;-145.18;100.00;47318.72;5050093;28;20274;-73
2022/04/20 07:10:59;;;;;;;9.80;4.53;;;;;;;-145.18;100.00;47320.69;5050157;28;20040;-73
2022/04/20 07:13:24;;;;;;;6.87;4.90;;;;;;;-145.18;100.00;47308.97;5035584;28;20271;-73
2022/04/20 07:15:50;;;;;;;6.90;4.13;;;;;;;-145.18;100.00;47307.00;5012366;28;20045;-72
2022/04/20 07:18:16;;;;;;;7.70;4.23;;;;;;;-145.18;100.00;47293.31;5029576;28;20120;-73
2022/04/20 07:20:42;;;;;;;9.20;4.03;;;;;;;-145.18;100.00;47289.41;5028849;28;20048;-72
2022/04/20 07:23:09;;;;;;;8.93;4.17;;;;;;;-145.18;100.00;47281.59;5029620;28;20037;-72
2022/04/20 07:25:36;;;;;;;6.40;4.23;;;;;;;-145.18;100.00;47295.28;5012511;28;20029;-72
2022/04/20 07:28:02;;;;;;;8.77;4.40;;;;;;;-145.18;100.00;47291.38;5029060;28;20282;-72
2022/04/20 07:30:27;;;;;;;11.73;3.90;;;;;;;-145.18;100.00;47277.69;5029525;28;20275;-72
2022/04/20 07:32:53;;;;;;;7.97;3.87;;;;;;;-145.18;100.00;47275.75;5029894;28;20317;-72
2022/04/20 07:35:18;;;;;;;6.87;4.60;;;;;;;-145.18;100.00;47260.13;5029558;28;20044;-72
2022/04/20 07:37:44;;;;;;;9.23;3.67;;;;;;;-145.18;100.00;47264.03;5029955;28;20056;-72
2022/04/20 07:40:10;;;;;;;6.40;3.73;;;;;;;-145.18;100.00;47275.75;5046235;28;20484;-72
2022/04/20 07:42:38;;;;;;;13.40;4.17;;;;;;;-145.18;100.00;47262.06;5049873;28;20397;-72
2022/04/20 07:45:04;;;;;;;13.50;4.07;;;;;;;-145.18;100.00;47244.50;5031326;28;20032;-72
2022/04/20 07:47:29;;;;;;;9.43;4.10;;;;;;;-145.18;100.00;47256.22;5050086;28;20258;-72
2022/04/20 07:52:41;;;;;;;7.47;3.90;;;;;;;-145.18;100.00;47246.44;5050131;28;20462;-73
2022/04/20 07:55:11;;;;;;;6.63;3.90;;;;;;;-145.18;100.00;47236.66;5048992;28;20277;-73
2022/04/20 07:57:37;;;;;;;5.40;3.90;;;;;;;-145.18;100.00;47250.34;5049958;28;20328;-73
2022/04/20 08:00:04;;;;;;;5.80;4.30;;;;;;;-145.18;100.00;47238.63;5049113;28;20290;-72
2022/04/20 08:02:29;;;;;;;6.67;4.03;;;;;;;-145.18;100.00;47232.75;5052866;28;20378;-73
2022/04/20 08:04:55;;;;;;;9.63;4.77;;;;;;;-145.18;100.00;47219.09;5035434;28;20844;-73
2022/04/20 08:07:20;;;;;;;11.07;4.67;;;;;;;-145.18;100.00;47221.03;5053358;28;20408;-72
2022/04/20 08:09:46;;;;;;;6.20;4.30;;;;;;;-145.18;100.00;47217.13;5035524;28;20080;-72
2022/04/20 08:12:11;;;;;;;15.50;4.50;;;;;;;-145.18;100.00;47223.00;5053427;28;20044;-73
2022/04/20 08:14:37;;;;;;;7.77;4.63;;;;;;;-145.18;100.00;47219.09;5052900;28;20032;-73
2022/04/20 08:17:02;;;;;;;9.17;4.57;;;;;;;-145.18;100.00;47224.94;5035513;28;20033;-73
2022/04/20 08:19:29;;;;;;;15.47;4.70;;;;;;;-145.18;100.00;47221.03;5053108;28;20175;-72
2022/04/20 08:21:55;;;;;;;9.50;3.97;;;;;;;-145.18;100.00;47215.19;5053524;28;20040;-72
2022/04/20 08:24:20;;;;;;;8.63;4.00;;;;;;;-145.18;100.00;47201.50;5034774;28;20386;-72
2022/04/20 08:26:46;;;;;;;11.93;4.03;;;;;;;-145.18;100.00;47197.59;5053503;28;20063;-72
2022/04/20 08:29:11;;;;;;;11.03;3.97;;;;;;;-145.18;100.00;47199.56;5052751;28;20033;-72
2022/04/20 08:31:37;;;;;;;15.33;4.20;;;;;;;-145.18;100.00;47195.66;5053259;28;20037;-72
2022/04/20 08:34:04;;;;;;;8.77;3.67;;;;;;;-145.18;100.00;47181.97;5052816;28;20029;-72
2022/04/20 08:36:29;;;;;;;8.73;3.13;;;;;;;-145.18;100.00;47185.88;5053157;28;20036;-72
2022/04/20 08:38:54;;;;;;;8.00;3.43;;;;;;;-145.18;100.00;47180.03;5052622;28;20048;-72
2022/04/20 08:41:20;;;;;;;7.73;4.13;;;;;;;-145.18;100.00;47193.69;5053091;28;20037;-72
2022/04/20 08:43:45;;;;;;;9.63;3.93;;;;;;;-145.18;100.00;47174.16;5052687;28;20039;-72
2022/04/20 08:46:11;;;;;;;8.40;4.10;;;;;;;-145.18;100.00;47168.28;5052124;28;20044;-72
2022/04/20 08:48:37;;;;;;;6.07;3.77;;;;;;;-145.18;100.00;47174.16;5052433;28;20044;-72
2022/04/20 08:51:04;;;;;;;13.73;3.50;;;;;;;-145.18;100.00;47168.28;5053028;28;20495;-72
2022/04/20 08:53:30;;;;;;;6.67;4.10;;;;;;;-145.18;100.00;47164.38;5052596;28;20033;-72
2022/04/20 08:58:43;;;;;;;7.03;4.57;;;;;;;-145.18;100.00;47162.44;5052123;28;20175;-73
2022/04/20 09:01:11;;;;;;;6.60;3.80;;;;;;;-145.18;100.00;47154.63;5052412;28;20064;-73
2022/04/20 09:03:37;;;;;;;8.30;4.23;;;;;;;-145.18;100.00;47166.34;5051924;28;20052;-73
2022/04/20 09:06:04;;;;;;;5.83;3.93;;;;;;;-145.18;100.00;47168.28;5052492;28;20041;-73
2022/04/20 09:08:29;;;;;;;8.73;3.67;;;;;;;-145.18;100.00;47195.66;5052076;28;20589;-73
2022/04/20 09:10:56;;;;;;;6.43;3.67;;;;;;;-145.18;100.00;47162.44;5050464;28;20044;-73
2022/04/20 09:13:41;;;;;;;7.37;4.17;;;;;;;-145.18;100.00;47170.25;5051207;28;20036;-73
2022/04/20 09:16:08;;;;;;;8.43;3.50;;;;;;;-145.18;100.00;47148.75;5052375;28;20432;-73
2022/04/20 09:18:35;;;;;;;8.17;3.90;;;;;;;-145.18;100.00;47150.72;5051934;28;20239;-73
2022/04/20 09:21:07;;;;;;;19.13;4.20;;;;;;;-145.18;100.00;47140.94;5051907;28;20224;-73
2022/04/20 09:23:33;;;;;;;10.63;3.47;;;;;;;-145.18;100.00;47131.19;5051897;28;20135;-73
2022/04/20 09:26:11;;;;;;;16.30;3.67;;;;;;;-145.18;100.00;47133.13;5052253;28;20039;-73
2022/04/20 09:28:39;;;;;;;8.90;3.57;;;;;;;-145.18;100.00;47135.09;5051769;28;20051;-73
2022/04/20 09:31:05;;;;;;;11.03;4.33;;;;;;;-145.18;100.00;47142.91;5051949;28;20078;-73
2022/04/20 09:33:46;;;;;;;6.90;4.57;;;;;;;-145.18;100.00;47115.56;5051492;28;20041;-73
2022/04/20 09:36:13;;;;;;;7.90;4.10;;;;;;;-145.18;100.00;47115.56;5051605;28;20063;-73
2022/04/20 09:38:59;;;;;;;7.73;3.67;;;;;;;-145.18;100.00;47111.66;5051532;28;20037;-73
2022/04/20 09:41:24;;;;;;;6.38;4.05;;;;;;;-145.18;100.00;47115.56;5051777;28;20043;-73
2022/04/20 09:44:07;;;;;;;5.63;3.07;;;;;;;-145.18;100.00;47117.50;5051588;28;20136;-73
2022/04/20 09:49:16;;;;;;;7.30;2.93;;;;;;;-145.18;100.00;47115.56;5051473;28;20036;-73
2022/04/20 09:51:42;;;;;;;5.47;3.00;;;;;;;-145.18;100.00;47121.41;5051775;28;20029;-73
2022/04/20 09:54:27;;;;;;;10.13;3.40;;;;;;;-145.18;100.00;47111.66;5051239;28;20041;-73
2022/04/20 09:57:11;;;;;;;4.63;3.13;;;;;;;-145.18;100.00;47111.66;5051472;28;20087;-74
2022/04/20 09:59:37;;;;;;;5.27;3.03;;;;;;;-145.18;100.00;47097.97;5051030;28;20107;-73
2022/04/20 10:02:12;;;;;;;5.33;3.10;;;;;;;-145.18;100.00;47101.88;5051247;28;20025;-73
2022/04/20 10:04:42;;;;;;;5.23;2.50;;;;;;;-145.18;100.00;47096.00;5050856;28;20072;-73
2022/04/20 10:07:07;;;;;;;5.10;2.63;;;;;;;-145.18;100.00;47121.41;5051544;28;20037;-73
2022/04/20 10:09:33;;;;;;;4.50;2.90;;;;;;;-145.18;100.00;47103.81;5051004;28;20121;-73
2022/04/20 10:11:59;;;;;;;4.23;2.80;;;;;;;-145.18;100.00;47107.72;5050996;28;20370;-73
2022/04/20 10:17:15;;;;;;;6.27;2.50;;;;;;;-145.18;100.00;47092.09;5050998;28;20040;-73
2022/04/20 10:19:41;;;;;;;5.63;3.53;;;;;;;-145.18;100.00;47105.78;5050908;28;20485;-73
2022/04/20 10:22:08;;;;;;;5.03;2.77;;;;;;;-145.18;100.00;47084.28;5051050;28;20078;-73
2022/04/20 10:24:41;;;;;;;7.17;2.90;;;;;;;-145.18;100.00;47090.16;5049651;28;20074;-73
2022/04/20 10:27:24;;;;;;;5.53;2.60;;;;;;;-145.18;100.00;47096.00;5033390;28;20112;-73
2022/04/20 10:29:59;;;;;;;7.33;2.67;;;;;;;-145.18;100.00;47092.09;5050519;28;20024;-73
2022/04/20 10:32:27;;;;;;;4.32;2.40;;;;;;;-145.18;96.23;47078.44;5050380;28;20047;-73
2022/04/20 10:34:53;;;;;;;9.20;2.13;;;;;;;-145.18;95.26;47064.75;5050615;28;20079;-73
2022/04/20 10:37:25;;;;;;;6.10;2.43;;;;;;;-145.18;92.28;47068.66;5050788;28;20063;-73
2022/04/20 10:40:10;;;;;;;6.87;2.10;;;;;;;-145.18;93.52;47072.56;5050481;28;20474;-73
2022/04/20 10:42:36;;;;;;;5.50;2.10;;;;;;;-145.18;92.90;47090.16;5050666;28;20045;-74
2022/04/20 10:45:01;;;;;;;6.13;2.10;;;;;;;-145.18;93.73;47070.63;5049959;28;20497;-73
2022/04/20 10:47:35;;;;;;;6.47;2.30;;;;;;;-145.18;91.17;47074.53;5032483;28;20448;-73
2022/04/20 10:50:13;;;;;;;4.07;2.27;;;;;;;-145.18;88.46;47072.56;5050065;28;20036;-73
2022/04/20 10:52:41;;;;;;;3.63;1.90;;;;;;;-145.18;86.43;47086.25;5032807;28;20090;-75
2022/04/20 10:55:06;;;;;;;6.40;2.10;;;;;;;-145.18;86.46;47078.44;5050090;28;20055;-74
2022/04/20 10:57:34;;;;;;;4.90;2.00;;;;;;;-145.18;85.40;47064.75;5043650;28;20481;-73
2022/04/20 11:00:17;;;;;;;3.57;2.10;;;;;;;-145.18;85.73;47068.66;5049780;28;20041;-74
2022/04/20 11:03:01;;;;;;;6.00;2.00;;;;;;;-145.18;87.14;47049.13;5045641;28;20040;-75
2022/04/20 11:05:26;;;;;;;5.63;2.30;;;;;;;-145.18;81.38;47058.91;5029896;28;20037;-73
2022/04/20 11:08:02;;;;;;;7.47;2.07;;;;;;;-145.18;80.46;47051.09;5027626;28;20052;-75
2022/04/20 11:10:28;;;;;;;6.80;2.10;;;;;;;-145.18;80.36;47066.72;5030000;28;20427;-75
2022/04/20 11:19:04;;;;;;;7.23;1.80;;;;;;;-145.18;81.03;47053.03;5010175;28;20649;-73
2022/04/20 11:21:30;;;;;;;6.33;1.80;;;;;;;-145.18;82.26;47056.94;5010393;28;20044;-75
2022/04/20 11:24:03;;;;;;;5.50;2.10;;;;;;;-145.18;79.83;47053.03;5009309;28;20037;-73
2022/04/20 11:26:39;;;;;;;3.13;1.90;;;;;;;-145.18;83.46;47039.34;5022567;28;20045;-73
2022/04/20 11:29:16;;;;;;;6.47;2.07;;;;;;;-145.18;81.75;47056.94;5029433;28;20061;-73
2022/04/20 11:31:45;;;;;;;2.30;1.67;;;;;;;-145.18;77.59;47027.63;5029059;28;20071;-76
2022/04/20 11:34:11;;;;;;;5.83;2.10;;;;;;;-145.18;78.13;47039.34;5028545;28;20456;-74
2022/04/20 11:36:42;;;;;;;9.77;1.83;;;;;;;-145.18;82.45;47035.44;5029562;28;20021;-73
2022/04/20 11:39:09;;;;;;;5.60;2.60;;;;;;;-145.18;81.63;47049.13;5028975;28;20662;-75
2022/04/20 11:41:35;;;;;;;4.47;1.90;;;;;;;-145.18;78.62;47031.53;5029601;28;20040;-77
2022/04/20 11:44:02;;;;;;;5.03;2.20;;;;;;;-145.18;79.18;47037.41;5028742;28;20025;-76
2022/04/20 11:46:27;;;;;;;3.93;1.97;;;;;;;-145.18;79.84;47049.13;5029413;28;20530;-73
2022/04/20 11:48:55;;;;;;;6.57;2.17;;;;;;;-145.18;83.60;47031.53;5028450;28;20104;-73
2022/04/20 11:51:25;;;;;;;5.30;2.57;;;;;;;-145.18;81.43;47019.81;5028232;28;20401;-73
2022/04/20 11:53:51;;;;;;;8.07;2.07;;;;;;;-145.18;81.07;47031.53;5029297;28;20096;-74
2022/04/20 11:56:17;;;;;;;6.47;2.30;;;;;;;-145.18;78.82;47021.78;5029556;28;20437;-73
2022/04/20 11:58:53;;;;;;;5.07;2.33;;;;;;;-145.18;78.16;47021.78;5027698;28;20034;-73
2022/04/20 12:01:22;;;;;;;3.67;2.07;;;;;;;-145.18;79.23;47017.88;5028489;28;20083;-73
2022/04/20 12:03:50;;;;;;;5.37;2.50;;;;;;;-145.18;78.72;46986.63;5028737;28;20049;-74
2022/04/20 12:06:16;;;;;;;7.40;2.50;;;;;;;-145.18;74.48;46994.44;5028740;28;20049;-76
2022/04/20 12:08:41;;;;;;;5.03;2.50;;;;;;;-145.18;73.88;46961.22;5027409;28;20045;-74
2022/04/20 12:11:08;;;;;;;11.53;2.20;;;;;;;-145.18;74.31;46955.34;5028849;28;20029;-75
2022/04/20 12:13:35;;;;;;;6.53;2.50;;;;;;;-145.18;74.39;46941.69;5029456;28;20029;-75
2022/04/20 12:16:11;;;;;;;3.03;2.00;;;;;;;-145.18;71.53;46939.72;5028538;28;20037;-75
2022/04/20 12:18:42;;;;;;;3.93;2.10;;;;;;;-145.18;72.03;46922.16;5029241;28;20409;-75
2022/04/20 12:21:40;;;;;;;5.70;2.40;;;;;;;-145.18;73.50;46943.63;5028741;28;20060;-75
2022/04/20 12:24:07;;;;;;;3.17;2.60;;;;;;;-145.18;70.09;46961.22;5028948;28;20401;-75
2022/04/20 12:26:32;;;;;;;5.10;2.87;;;;;;;-145.18;72.39;46996.38;5029436;28;20036;-75
2022/04/20 12:28:59;;;;;;;5.97;2.70;;;;;;;-145.18;76.07;47010.06;5028842;28;20034;-75
2022/04/20 12:31:25;;;;;;;5.47;3.00;;;;;;;-145.18;75.65;47010.06;5029111;28;20116;-75
2022/04/20 12:34:04;;;;;;;6.00;2.30;;;;;;;-145.18;77.25;47015.91;5029388;28;20033;-75
2022/04/20 12:36:31;;;;;;;6.23;2.07;;;;;;;-145.18;72.13;47017.88;5029313;28;20044;-75
2022/04/20 12:38:58;;;;;;;5.07;2.30;;;;;;;-145.18;71.41;47012.00;5028749;28;20044;-73
2022/04/20 12:41:46;;;;;;;4.93;2.17;;;;;;;-145.18;70.89;46996.38;5028188;28;20121;-75
2022/04/20 12:44:35;;;;;;;2.90;2.10;;;;;;;-145.18;73.34;47037.41;5028559;28;20022;-76
2022/04/20 12:47:12;;;;;;;4.70;2.20;;;;;;;-145.18;74.66;47019.81;5028749;28;20032;-75
2022/04/20 12:49:38;;;;;;;3.70;2.60;;;;;;;-145.18;75.96;47037.41;5031730;28;20053;-75
2022/04/20 12:52:08;;;;;;;2.47;1.83;;;;;;;-145.18;78.18;47019.81;5032667;28;20033;-75
2022/04/20 12:54:34;;;;;;;3.47;1.97;;;;;;;-145.18;74.13;47025.69;5031035;28;20029;-75
2022/04/20 13:02:28;;;;;;;4.43;2.13;;;;;;;-145.18;76.24;47002.25;5031667;28;20080;-75
2022/04/20 13:04:54;;;;;;;3.77;2.17;;;;;;;-145.18;72.06;47029.59;5011299;28;20049;-75
2022/04/20 13:07:19;;;;;;;5.13;2.33;;;;;;;-145.18;74.76;47010.06;5011977;28;20042;-75
2022/04/20 13:09:45;;;;;;;2.90;2.10;;;;;;;-145.18;73.51;46990.53;5011893;28;20084;-75
2022/04/20 13:12:11;;;;;;;4.73;2.20;;;;;;;-145.18;72.74;47004.19;5012057;28;20120;-75
2022/04/20 13:14:37;;;;;;;3.13;2.20;;;;;;;-145.18;75.78;47000.28;5012197;28;20034;-75
2022/04/20 13:17:03;;;;;;;4.80;2.23;;;;;;;-145.18;72.65;46994.44;5012573;28;20044;-75
2022/04/20 13:19:28;;;;;;;4.53;2.40;;;;;;;-145.18;73.52;46996.38;5012207;28;20042;-75
2022/04/20 13:21:54;;;;;;;5.87;2.60;;;;;;;-145.18;74.63;46990.53;5012556;28;20041;-75
2022/04/20 13:29:47;;;;;;;3.70;2.30;;;;;;;-145.18;78.30;47002.25;5012453;28;20052;-75
2022/04/20 13:32:14;;;;;;;5.97;2.30;;;;;;;-145.18;74.28;46984.66;5011998;28;20041;-75
2022/04/20 13:34:40;;;;;;;6.30;2.10;;;;;;;-145.18;72.92;46982.72;5011942;28;20030;-75
2022/04/20 13:37:05;;;;;;;4.30;2.30;;;;;;;-145.18;70.66;46976.84;5012318;28;20470;-75
2022/04/20 13:39:31;;;;;;;4.67;2.50;;;;;;;-145.18;72.71;46988.56;5011634;28;20042;-75
2022/04/20 13:41:57;;;;;;;4.07;2.17;;;;;;;-145.18;71.86;46971.00;4994265;28;20099;-75
2022/04/20 13:44:23;;;;;;;7.13;2.70;;;;;;;-145.18;70.46;46980.75;5011663;28;20068;-75
2022/04/20 13:46:48;;;;;;;4.77;2.70;;;;;;;-145.18;72.46;46990.53;4995005;28;20065;-75
2022/04/20 13:49:14;;;;;;;4.13;2.70;;;;;;;-145.18;72.84;47000.28;5011372;28;20118;-75
2022/04/20 13:51:40;;;;;;;8.20;3.10;;;;;;;-145.18;74.09;47006.16;4978136;28;20041;-75